sensor_id;sensor_type;location;lat;lon;timestamp;P1;durP1;ratioP1;P2;durP2;ratioP2
34902;SDS011;21114;44.840;0.214;2023-02-22T00:01:40;11.93;;;8.48;;
34902;SDS011;21114;44.840;0.214;2023-02-22T00:04:35;11.80;;;9.10;;
34902;SDS011;21114;44.840;0.214;2023-02-22T00:07:03;13.30;;;9.43;;
34902;SDS011;21114;44.840;0.214;2023-02-22T00:09:29;13.63;;;10.35;;
34902;SDS011;21114;44.840;0.214;2023-02-22T00:11:56;17.02;;;11.93;;
34902;SDS011;21114;44.840;0.214;2023-02-22T00:14:22;15.80;;;10.68;;
34902;SDS011;21114;44.840;0.214;2023-02-22T00:16:51;19.60;;;12.02;;
34902;SDS011;21114;44.840;0.214;2023-02-22T00:19:20;15.50;;;8.73;;
34902;SDS011;21114;44.840;0.214;2023-02-22T00:21:50;16.77;;;9.85;;
34902;SDS011;21114;44.840;0.214;2023-02-22T00:25:05;11.93;;;8.23;;
34902;SDS011;21114;44.840;0.214;2023-02-22T00:27:31;13.32;;;8.65;;
34902;SDS011;21114;44.840;0.214;2023-02-22T00:30:48;15.88;;;8.55;;
34902;SDS011;21114;44.840;0.214;2023-02-22T00:33:14;14.07;;;9.55;;
34902;SDS011;21114;44.840;0.214;2023-02-22T00:36:29;16.15;;;9.98;;
34902;SDS011;21114;44.840;0.214;2023-02-22T00:38:55;13.10;;;8.73;;
34902;SDS011;21114;44.840;0.214;2023-02-22T00:41:21;11.32;;;8.65;;
34902;SDS011;21114;44.840;0.214;2023-02-22T00:43:47;10.77;;;7.75;;
34902;SDS011;21114;44.840;0.214;2023-02-22T00:47:02;12.48;;;10.20;;
34902;SDS011;21114;44.840;0.214;2023-02-22T00:49:28;13.27;;;10.10;;
34902;SDS011;21114;44.840;0.214;2023-02-22T00:51:55;13.20;;;8.57;;
34902;SDS011;21114;44.840;0.214;2023-02-22T00:54:21;11.27;;;8.75;;
34902;SDS011;21114;44.840;0.214;2023-02-22T00:56:47;10.88;;;9.57;;
34902;SDS011;21114;44.840;0.214;2023-02-22T00:59:14;16.02;;;10.18;;
34902;SDS011;21114;44.840;0.214;2023-02-22T01:01:40;13.70;;;7.20;;
34902;SDS011;21114;44.840;0.214;2023-02-22T01:04:07;15.43;;;8.57;;
34902;SDS011;21114;44.840;0.214;2023-02-22T01:06:33;11.40;;;7.95;;
34902;SDS011;21114;44.840;0.214;2023-02-22T01:08:59;16.02;;;8.38;;
34902;SDS011;21114;44.840;0.214;2023-02-22T01:11:54;13.23;;;9.20;;
34902;SDS011;21114;44.840;0.214;2023-02-22T01:14:21;9.57;;;7.40;;
34902;SDS011;21114;44.840;0.214;2023-02-22T01:17:36;12.77;;;6.90;;
34902;SDS011;21114;44.840;0.214;2023-02-22T01:20:29;13.70;;;9.35;;
34902;SDS011;21114;44.840;0.214;2023-02-22T01:23:30;14.45;;;7.07;;
34902;SDS011;21114;44.840;0.214;2023-02-22T01:25:56;10.48;;;7.55;;
34902;SDS011;21114;44.840;0.214;2023-02-22T01:28:22;12.02;;;6.22;;
34902;SDS011;21114;44.840;0.214;2023-02-22T01:30:48;13.45;;;9.32;;
34902;SDS011;21114;44.840;0.214;2023-02-22T01:33:15;10.77;;;7.32;;
34902;SDS011;21114;44.840;0.214;2023-02-22T01:35:42;13.77;;;8.15;;
34902;SDS011;21114;44.840;0.214;2023-02-22T01:38:56;11.40;;;7.20;;
34902;SDS011;21114;44.840;0.214;2023-02-22T01:41:22;13.43;;;8.35;;
34902;SDS011;21114;44.840;0.214;2023-02-22T01:43:49;10.05;;;8.05;;
34902;SDS011;21114;44.840;0.214;2023-02-22T01:46:18;12.18;;;7.90;;
34902;SDS011;21114;44.840;0.214;2023-02-22T01:49:42;11.23;;;6.57;;
34902;SDS011;21114;44.840;0.214;2023-02-22T01:52:58;13.10;;;7.78;;
34902;SDS011;21114;44.840;0.214;2023-02-22T01:55:24;11.32;;;6.53;;
34902;SDS011;21114;44.840;0.214;2023-02-22T01:57:50;10.88;;;6.28;;
34902;SDS011;21114;44.840;0.214;2023-02-22T02:01:05;11.80;;;7.05;;
34902;SDS011;21114;44.840;0.214;2023-02-22T02:03:32;11.52;;;6.88;;
34902;SDS011;21114;44.840;0.214;2023-02-22T02:06:47;21.20;;;12.68;;
34902;SDS011;21114;44.840;0.214;2023-02-22T02:09:16;14.00;;;8.30;;
34902;SDS011;21114;44.840;0.214;2023-02-22T02:12:38;14.02;;;8.48;;
34902;SDS011;21114;44.840;0.214;2023-02-22T02:15:53;22.23;;;11.77;;
34902;SDS011;21114;44.840;0.214;2023-02-22T02:19:02;11.90;;;8.50;;
34902;SDS011;21114;44.840;0.214;2023-02-22T02:36:15;13.52;;;9.63;;
34902;SDS011;21114;44.840;0.214;2023-02-22T02:39:34;23.90;;;11.35;;
34902;SDS011;21114;44.840;0.214;2023-02-22T02:42:52;13.75;;;8.90;;
34902;SDS011;21114;44.840;0.214;2023-02-22T02:48:31;14.15;;;7.38;;
34902;SDS011;21114;44.840;0.214;2023-02-22T02:51:31;14.45;;;9.25;;
34902;SDS011;21114;44.840;0.214;2023-02-22T02:54:47;13.52;;;6.97;;
34902;SDS011;21114;44.840;0.214;2023-02-22T02:58:03;13.27;;;8.70;;
34902;SDS011;21114;44.840;0.214;2023-02-22T03:01:05;14.25;;;7.68;;
34902;SDS011;21114;44.840;0.214;2023-02-22T03:06:15;14.20;;;9.20;;
34902;SDS011;21114;44.840;0.214;2023-02-22T03:12:05;16.40;;;8.75;;
34902;SDS011;21114;44.840;0.214;2023-02-22T03:20:59;13.05;;;10.05;;
34902;SDS011;21114;44.840;0.214;2023-02-22T03:29:41;20.33;;;9.55;;
34902;SDS011;21114;44.840;0.214;2023-02-22T03:32:34;16.45;;;9.70;;
34902;SDS011;21114;44.840;0.214;2023-02-22T03:35:54;12.10;;;8.30;;
34902;SDS011;21114;44.840;0.214;2023-02-22T03:39:10;12.43;;;10.00;;
34902;SDS011;21114;44.840;0.214;2023-02-22T03:42:32;12.52;;;8.82;;
34902;SDS011;21114;44.840;0.214;2023-02-22T03:45:02;12.00;;;9.20;;
34902;SDS011;21114;44.840;0.214;2023-02-22T03:50:56;14.65;;;9.02;;
34902;SDS011;21114;44.840;0.214;2023-02-22T03:53:25;17.27;;;10.35;;
34902;SDS011;21114;44.840;0.214;2023-02-22T03:59:32;14.25;;;8.55;;
34902;SDS011;21114;44.840;0.214;2023-02-22T04:02:47;16.17;;;8.25;;
34902;SDS011;21114;44.840;0.214;2023-02-22T04:05:13;14.38;;;8.20;;
34902;SDS011;21114;44.840;0.214;2023-02-22T04:07:40;11.60;;;8.38;;
34902;SDS011;21114;44.840;0.214;2023-02-22T04:10:54;16.27;;;8.65;;
34902;SDS011;21114;44.840;0.214;2023-02-22T04:13:20;13.98;;;10.57;;
34902;SDS011;21114;44.840;0.214;2023-02-22T04:15:46;15.10;;;8.95;;
34902;SDS011;21114;44.840;0.214;2023-02-22T04:18:12;15.50;;;8.80;;
34902;SDS011;21114;44.840;0.214;2023-02-22T04:20:39;13.98;;;9.30;;
34902;SDS011;21114;44.840;0.214;2023-02-22T04:23:05;16.52;;;10.00;;
34902;SDS011;21114;44.840;0.214;2023-02-22T04:25:31;15.82;;;10.48;;
34902;SDS011;21114;44.840;0.214;2023-02-22T04:27:57;16.50;;;10.02;;
34902;SDS011;21114;44.840;0.214;2023-02-22T04:30:23;18.73;;;10.32;;
34902;SDS011;21114;44.840;0.214;2023-02-22T04:32:49;10.95;;;9.00;;
34902;SDS011;21114;44.840;0.214;2023-02-22T04:35:15;11.95;;;9.02;;
34902;SDS011;21114;44.840;0.214;2023-02-22T04:37:41;16.70;;;8.50;;
34902;SDS011;21114;44.840;0.214;2023-02-22T04:40:08;16.15;;;9.25;;
34902;SDS011;21114;44.840;0.214;2023-02-22T04:42:35;18.23;;;10.63;;
34902;SDS011;21114;44.840;0.214;2023-02-22T04:45:50;16.98;;;10.82;;
34902;SDS011;21114;44.840;0.214;2023-02-22T04:48:16;13.23;;;9.55;;
34902;SDS011;21114;44.840;0.214;2023-02-22T04:50:42;13.55;;;9.75;;
34902;SDS011;21114;44.840;0.214;2023-02-22T04:53:09;16.15;;;10.60;;
34902;SDS011;21114;44.840;0.214;2023-02-22T04:56:23;17.52;;;9.80;;
34902;SDS011;21114;44.840;0.214;2023-02-22T04:58:49;16.52;;;9.80;;
34902;SDS011;21114;44.840;0.214;2023-02-22T05:01:15;16.55;;;10.05;;
34902;SDS011;21114;44.840;0.214;2023-02-22T05:03:41;17.10;;;10.48;;
34902;SDS011;21114;44.840;0.214;2023-02-22T05:06:08;15.45;;;8.40;;
34902;SDS011;21114;44.840;0.214;2023-02-22T05:08:36;20.08;;;10.15;;
34902;SDS011;21114;44.840;0.214;2023-02-22T05:11:02;14.45;;;9.07;;
34902;SDS011;21114;44.840;0.214;2023-02-22T05:13:29;15.05;;;10.60;;
34902;SDS011;21114;44.840;0.214;2023-02-22T05:15:55;23.90;;;13.05;;
34902;SDS011;21114;44.840;0.214;2023-02-22T05:18:21;25.95;;;14.32;;
34902;SDS011;21114;44.840;0.214;2023-02-22T05:20:47;21.33;;;11.63;;
34902;SDS011;21114;44.840;0.214;2023-02-22T05:23:14;17.52;;;10.55;;
34902;SDS011;21114;44.840;0.214;2023-02-22T05:25:40;15.73;;;12.50;;
34902;SDS011;21114;44.840;0.214;2023-02-22T05:28:54;12.43;;;9.88;;
34902;SDS011;21114;44.840;0.214;2023-02-22T05:31:20;17.13;;;11.52;;
34902;SDS011;21114;44.840;0.214;2023-02-22T05:33:46;13.57;;;11.23;;
34902;SDS011;21114;44.840;0.214;2023-02-22T05:36:12;20.05;;;11.82;;
34902;SDS011;21114;44.840;0.214;2023-02-22T05:38:38;16.70;;;11.23;;
34902;SDS011;21114;44.840;0.214;2023-02-22T05:41:08;16.05;;;10.55;;
34902;SDS011;21114;44.840;0.214;2023-02-22T05:44:22;22.00;;;13.00;;
34902;SDS011;21114;44.840;0.214;2023-02-22T05:46:48;17.02;;;11.70;;
34902;SDS011;21114;44.840;0.214;2023-02-22T05:49:15;18.05;;;11.07;;
34902;SDS011;21114;44.840;0.214;2023-02-22T05:51:41;16.52;;;11.30;;
34902;SDS011;21114;44.840;0.214;2023-02-22T05:54:07;21.55;;;14.25;;
34902;SDS011;21114;44.840;0.214;2023-02-22T05:56:33;17.65;;;11.95;;
34902;SDS011;21114;44.840;0.214;2023-02-22T05:59:00;24.58;;;14.98;;
34902;SDS011;21114;44.840;0.214;2023-02-22T06:01:26;14.77;;;11.60;;
34902;SDS011;21114;44.840;0.214;2023-02-22T06:03:53;20.80;;;12.48;;
34902;SDS011;21114;44.840;0.214;2023-02-22T06:06:19;20.00;;;12.75;;
34902;SDS011;21114;44.840;0.214;2023-02-22T06:09:33;20.67;;;12.10;;
34902;SDS011;21114;44.840;0.214;2023-02-22T06:11:59;19.40;;;11.43;;
34902;SDS011;21114;44.840;0.214;2023-02-22T06:14:25;20.50;;;13.75;;
34902;SDS011;21114;44.840;0.214;2023-02-22T06:16:52;18.38;;;12.35;;
34902;SDS011;21114;44.840;0.214;2023-02-22T06:20:08;17.10;;;10.93;;
34902;SDS011;21114;44.840;0.214;2023-02-22T06:23:23;18.10;;;12.40;;
34902;SDS011;21114;44.840;0.214;2023-02-22T06:26:38;21.70;;;11.60;;
34902;SDS011;21114;44.840;0.214;2023-02-22T06:29:04;20.15;;;12.07;;
34902;SDS011;21114;44.840;0.214;2023-02-22T06:31:30;17.45;;;13.15;;
34902;SDS011;21114;44.840;0.214;2023-02-22T06:33:56;21.83;;;15.13;;
34902;SDS011;21114;44.840;0.214;2023-02-22T06:36:22;18.23;;;12.88;;
34902;SDS011;21114;44.840;0.214;2023-02-22T06:38:48;23.80;;;15.07;;
34902;SDS011;21114;44.840;0.214;2023-02-22T06:41:15;18.80;;;12.35;;
34902;SDS011;21114;44.840;0.214;2023-02-22T06:43:41;24.77;;;14.07;;
34902;SDS011;21114;44.840;0.214;2023-02-22T06:46:08;16.90;;;12.50;;
34902;SDS011;21114;44.840;0.214;2023-02-22T06:49:23;23.85;;;15.57;;
34902;SDS011;21114;44.840;0.214;2023-02-22T06:51:50;20.05;;;14.73;;
34902;SDS011;21114;44.840;0.214;2023-02-22T06:54:16;16.70;;;13.50;;
34902;SDS011;21114;44.840;0.214;2023-02-22T06:56:43;16.33;;;12.57;;
34902;SDS011;21114;44.840;0.214;2023-02-22T06:59:09;19.45;;;15.57;;
34902;SDS011;21114;44.840;0.214;2023-02-22T07:01:35;16.08;;;12.50;;
34902;SDS011;21114;44.840;0.214;2023-02-22T07:04:01;20.13;;;15.00;;
34902;SDS011;21114;44.840;0.214;2023-02-22T07:07:21;17.17;;;14.55;;
34902;SDS011;21114;44.840;0.214;2023-02-22T07:09:54;20.48;;;14.00;;
34902;SDS011;21114;44.840;0.214;2023-02-22T07:13:08;21.73;;;15.82;;
34902;SDS011;21114;44.840;0.214;2023-02-22T07:15:35;17.02;;;13.30;;
34902;SDS011;21114;44.840;0.214;2023-02-22T07:18:56;23.17;;;13.48;;
34902;SDS011;21114;44.840;0.214;2023-02-22T07:22:11;21.92;;;15.15;;
34902;SDS011;21114;44.840;0.214;2023-02-22T07:25:27;16.42;;;12.15;;
34902;SDS011;21114;44.840;0.214;2023-02-22T07:28:42;14.73;;;11.13;;
34902;SDS011;21114;44.840;0.214;2023-02-22T07:31:23;15.75;;;12.27;;
34902;SDS011;21114;44.840;0.214;2023-02-22T07:33:49;14.40;;;11.82;;
34902;SDS011;21114;44.840;0.214;2023-02-22T07:36:34;13.35;;;11.98;;
34902;SDS011;21114;44.840;0.214;2023-02-22T07:39:48;17.58;;;13.15;;
34902;SDS011;21114;44.840;0.214;2023-02-22T07:42:14;16.42;;;12.90;;
34902;SDS011;21114;44.840;0.214;2023-02-22T07:44:40;13.07;;;11.70;;
34902;SDS011;21114;44.840;0.214;2023-02-22T07:47:06;15.65;;;10.43;;
34902;SDS011;21114;44.840;0.214;2023-02-22T07:49:34;17.73;;;10.88;;
34902;SDS011;21114;44.840;0.214;2023-02-22T07:52:51;13.07;;;10.82;;
34902;SDS011;21114;44.840;0.214;2023-02-22T07:56:06;14.68;;;10.73;;
34902;SDS011;21114;44.840;0.214;2023-02-22T07:58:32;13.88;;;11.57;;
34902;SDS011;21114;44.840;0.214;2023-02-22T08:00:59;30.40;;;14.50;;
34902;SDS011;21114;44.840;0.214;2023-02-22T08:04:14;15.77;;;12.23;;
34902;SDS011;21114;44.840;0.214;2023-02-22T08:06:40;14.80;;;11.32;;
34902;SDS011;21114;44.840;0.214;2023-02-22T08:09:10;14.50;;;12.98;;
34902;SDS011;21114;44.840;0.214;2023-02-22T08:11:36;16.15;;;11.98;;
34902;SDS011;21114;44.840;0.214;2023-02-22T08:14:02;15.50;;;11.40;;
34902;SDS011;21114;44.840;0.214;2023-02-22T08:16:28;13.98;;;10.52;;
34902;SDS011;21114;44.840;0.214;2023-02-22T08:18:54;13.68;;;10.95;;
34902;SDS011;21114;44.840;0.214;2023-02-22T08:21:20;17.27;;;10.80;;
34902;SDS011;21114;44.840;0.214;2023-02-22T08:23:49;15.88;;;11.25;;
34902;SDS011;21114;44.840;0.214;2023-02-22T08:27:04;14.38;;;11.68;;
34902;SDS011;21114;44.840;0.214;2023-02-22T08:29:30;18.05;;;11.50;;
34902;SDS011;21114;44.840;0.214;2023-02-22T08:31:59;14.25;;;12.35;;
34902;SDS011;21114;44.840;0.214;2023-02-22T08:35:13;13.40;;;11.57;;
34902;SDS011;21114;44.840;0.214;2023-02-22T08:38:19;14.32;;;11.10;;
34902;SDS011;21114;44.840;0.214;2023-02-22T08:41:34;13.07;;;11.85;;
34902;SDS011;21114;44.840;0.214;2023-02-22T08:44:00;14.25;;;10.82;;
34902;SDS011;21114;44.840;0.214;2023-02-22T08:46:26;13.65;;;11.70;;
34902;SDS011;21114;44.840;0.214;2023-02-22T08:49:29;15.20;;;10.55;;
34902;SDS011;21114;44.840;0.214;2023-02-22T08:51:55;14.48;;;10.25;;
34902;SDS011;21114;44.840;0.214;2023-02-22T08:54:21;14.90;;;12.02;;
34902;SDS011;21114;44.840;0.214;2023-02-22T08:56:48;15.20;;;9.93;;
34902;SDS011;21114;44.840;0.214;2023-02-22T08:59:15;10.13;;;9.00;;
34902;SDS011;21114;44.840;0.214;2023-02-22T09:02:29;13.35;;;10.40;;
34902;SDS011;21114;44.840;0.214;2023-02-22T09:04:56;11.60;;;9.35;;
34902;SDS011;21114;44.840;0.214;2023-02-22T09:07:22;12.10;;;8.75;;
34902;SDS011;21114;44.840;0.214;2023-02-22T09:09:48;13.18;;;9.73;;
34902;SDS011;21114;44.840;0.214;2023-02-22T09:12:14;11.40;;;8.65;;
34902;SDS011;21114;44.840;0.214;2023-02-22T09:14:41;12.90;;;10.25;;
34902;SDS011;21114;44.840;0.214;2023-02-22T09:17:07;14.63;;;10.50;;
34902;SDS011;21114;44.840;0.214;2023-02-22T09:19:33;17.75;;;11.73;;
34902;SDS011;21114;44.840;0.214;2023-02-22T09:21:59;18.02;;;12.85;;
34902;SDS011;21114;44.840;0.214;2023-02-22T09:24:25;15.60;;;11.07;;
34902;SDS011;21114;44.840;0.214;2023-02-22T09:26:52;11.35;;;9.57;;
34902;SDS011;21114;44.840;0.214;2023-02-22T09:29:20;13.18;;;11.00;;
34902;SDS011;21114;44.840;0.214;2023-02-22T09:32:35;13.07;;;7.95;;
34902;SDS011;21114;44.840;0.214;2023-02-22T09:35:01;15.52;;;9.50;;
34902;SDS011;21114;44.840;0.214;2023-02-22T09:37:27;15.15;;;11.43;;
34902;SDS011;21114;44.840;0.214;2023-02-22T09:39:54;14.30;;;9.70;;
34902;SDS011;21114;44.840;0.214;2023-02-22T09:42:27;10.00;;;8.13;;
34902;SDS011;21114;44.840;0.214;2023-02-22T09:48:36;12.27;;;7.97;;
34902;SDS011;21114;44.840;0.214;2023-02-22T09:51:40;14.27;;;9.07;;
34902;SDS011;21114;44.840;0.214;2023-02-22T09:55:06;13.88;;;9.27;;
34902;SDS011;21114;44.840;0.214;2023-02-22T09:58:23;13.20;;;8.52;;
34902;SDS011;21114;44.840;0.214;2023-02-22T10:01:39;14.02;;;9.35;;
34902;SDS011;21114;44.840;0.214;2023-02-22T10:04:59;11.13;;;7.82;;
34902;SDS011;21114;44.840;0.214;2023-02-22T10:08:17;12.13;;;8.88;;
34902;SDS011;21114;44.840;0.214;2023-02-22T10:19:54;12.52;;;7.60;;
34902;SDS011;21114;44.840;0.214;2023-02-22T10:25:51;9.70;;;5.90;;
34902;SDS011;21114;44.840;0.214;2023-02-22T10:32:01;11.07;;;5.25;;
34902;SDS011;21114;44.840;0.214;2023-02-22T10:35:20;9.63;;;5.90;;
34902;SDS011;21114;44.840;0.214;2023-02-22T10:37:47;8.40;;;6.40;;
34902;SDS011;21114;44.840;0.214;2023-02-22T10:43:42;6.85;;;4.95;;
34902;SDS011;21114;44.840;0.214;2023-02-22T10:46:57;6.32;;;5.03;;
34902;SDS011;21114;44.840;0.214;2023-02-22T10:50:12;10.43;;;6.15;;
34902;SDS011;21114;44.840;0.214;2023-02-22T10:53:17;7.72;;;5.30;;
34902;SDS011;21114;44.840;0.214;2023-02-22T11:07:05;9.05;;;6.03;;
34902;SDS011;21114;44.840;0.214;2023-02-22T11:10:29;8.20;;;5.88;;
34902;SDS011;21114;44.840;0.214;2023-02-22T11:13:44;9.57;;;4.90;;
34902;SDS011;21114;44.840;0.214;2023-02-22T11:17:06;7.22;;;5.20;;
34902;SDS011;21114;44.840;0.214;2023-02-22T11:19:33;10.52;;;5.38;;
34902;SDS011;21114;44.840;0.214;2023-02-22T11:24:44;7.15;;;4.05;;
34902;SDS011;21114;44.840;0.214;2023-02-22T11:30:21;9.07;;;5.50;;
34902;SDS011;21114;44.840;0.214;2023-02-22T11:33:39;7.53;;;4.32;;
34902;SDS011;21114;44.840;0.214;2023-02-22T11:36:39;6.65;;;3.72;;
34902;SDS011;21114;44.840;0.214;2023-02-22T11:42:49;10.57;;;4.97;;
34902;SDS011;21114;44.840;0.214;2023-02-22T11:48:36;6.25;;;4.22;;
34902;SDS011;21114;44.840;0.214;2023-02-22T11:54:25;5.65;;;4.07;;
34902;SDS011;21114;44.840;0.214;2023-02-22T12:06:20;4.78;;;3.05;;
34902;SDS011;21114;44.840;0.214;2023-02-22T12:14:54;10.75;;;3.95;;
34902;SDS011;21114;44.840;0.214;2023-02-22T12:18:20;4.57;;;3.50;;
34902;SDS011;21114;44.840;0.214;2023-02-22T12:21:23;8.40;;;4.15;;
34902;SDS011;21114;44.840;0.214;2023-02-22T12:24:40;8.23;;;3.83;;
34902;SDS011;21114;44.840;0.214;2023-02-22T12:28:01;8.00;;;2.95;;
34902;SDS011;21114;44.840;0.214;2023-02-22T12:36:56;7.03;;;3.25;;
34902;SDS011;21114;44.840;0.214;2023-02-22T12:42:18;7.40;;;3.97;;
34902;SDS011;21114;44.840;0.214;2023-02-22T12:45:37;7.00;;;4.22;;
34902;SDS011;21114;44.840;0.214;2023-02-22T12:48:57;7.68;;;4.68;;
34902;SDS011;21114;44.840;0.214;2023-02-22T12:52:13;12.23;;;5.47;;
34902;SDS011;21114;44.840;0.214;2023-02-22T12:55:31;12.00;;;5.68;;
34902;SDS011;21114;44.840;0.214;2023-02-22T13:00:43;7.60;;;4.25;;
34902;SDS011;21114;44.840;0.214;2023-02-22T13:03:59;6.82;;;4.32;;
34902;SDS011;21114;44.840;0.214;2023-02-22T13:09:28;6.47;;;3.58;;
34902;SDS011;21114;44.840;0.214;2023-02-22T13:28:54;10.25;;;4.43;;
34902;SDS011;21114;44.840;0.214;2023-02-22T13:35:08;6.88;;;4.25;;
34902;SDS011;21114;44.840;0.214;2023-02-22T13:46:58;10.82;;;4.72;;
34902;SDS011;21114;44.840;0.214;2023-02-22T13:53:02;10.43;;;5.13;;
34902;SDS011;21114;44.840;0.214;2023-02-22T13:56:20;10.70;;;5.43;;
34902;SDS011;21114;44.840;0.214;2023-02-22T13:59:35;6.78;;;4.40;;
34902;SDS011;21114;44.840;0.214;2023-02-22T14:02:04;12.02;;;5.18;;
34902;SDS011;21114;44.840;0.214;2023-02-22T14:05:54;14.70;;;5.75;;
34902;SDS011;21114;44.840;0.214;2023-02-22T14:08:53;12.82;;;6.43;;
34902;SDS011;21114;44.840;0.214;2023-02-22T14:16:35;9.48;;;4.68;;
34902;SDS011;21114;44.840;0.214;2023-02-22T14:19:03;11.60;;;4.85;;
34902;SDS011;21114;44.840;0.214;2023-02-22T14:22:24;13.90;;;5.72;;
34902;SDS011;21114;44.840;0.214;2023-02-22T14:25:35;8.95;;;4.82;;
34902;SDS011;21114;44.840;0.214;2023-02-22T14:31:31;7.78;;;4.70;;
34902;SDS011;21114;44.840;0.214;2023-02-22T14:34:19;10.02;;;5.50;;
34902;SDS011;21114;44.840;0.214;2023-02-22T14:37:37;6.15;;;3.97;;
34902;SDS011;21114;44.840;0.214;2023-02-22T14:40:54;9.90;;;4.28;;
34902;SDS011;21114;44.840;0.214;2023-02-22T14:44:11;10.02;;;4.97;;
34902;SDS011;21114;44.840;0.214;2023-02-22T14:50:07;14.18;;;3.95;;
34902;SDS011;21114;44.840;0.214;2023-02-22T14:53:34;8.18;;;3.97;;
34902;SDS011;21114;44.840;0.214;2023-02-22T14:56:52;12.40;;;6.72;;
34902;SDS011;21114;44.840;0.214;2023-02-22T15:00:19;13.98;;;5.78;;
34902;SDS011;21114;44.840;0.214;2023-02-22T15:03:33;15.90;;;7.47;;
34902;SDS011;21114;44.840;0.214;2023-02-22T15:06:03;8.10;;;5.30;;
34902;SDS011;21114;44.840;0.214;2023-02-22T15:09:19;11.25;;;4.53;;
34902;SDS011;21114;44.840;0.214;2023-02-22T15:12:34;16.10;;;6.25;;
34902;SDS011;21114;44.840;0.214;2023-02-22T15:17:53;7.60;;;4.70;;
34902;SDS011;21114;44.840;0.214;2023-02-22T15:21:09;10.35;;;5.05;;
34902;SDS011;21114;44.840;0.214;2023-02-22T15:24:25;8.18;;;5.40;;
34902;SDS011;21114;44.840;0.214;2023-02-22T15:27:42;7.28;;;5.00;;
34902;SDS011;21114;44.840;0.214;2023-02-22T15:30:41;8.60;;;4.28;;
34902;SDS011;21114;44.840;0.214;2023-02-22T15:33:09;7.22;;;3.67;;
34902;SDS011;21114;44.840;0.214;2023-02-22T15:36:25;5.45;;;3.53;;
34902;SDS011;21114;44.840;0.214;2023-02-22T15:39:40;10.05;;;4.03;;
34902;SDS011;21114;44.840;0.214;2023-02-22T15:42:10;6.95;;;4.65;;
34902;SDS011;21114;44.840;0.214;2023-02-22T15:45:25;6.88;;;4.07;;
34902;SDS011;21114;44.840;0.214;2023-02-22T15:48:39;8.73;;;4.00;;
34902;SDS011;21114;44.840;0.214;2023-02-22T15:51:08;5.80;;;3.38;;
34902;SDS011;21114;44.840;0.214;2023-02-22T15:54:23;8.57;;;4.50;;
34902;SDS011;21114;44.840;0.214;2023-02-22T15:56:50;13.48;;;6.20;;
34902;SDS011;21114;44.840;0.214;2023-02-22T16:00:06;5.20;;;2.60;;
34902;SDS011;21114;44.840;0.214;2023-02-22T16:02:36;11.32;;;4.25;;
34902;SDS011;21114;44.840;0.214;2023-02-22T16:05:46;8.40;;;4.15;;
34902;SDS011;21114;44.840;0.214;2023-02-22T16:14:48;5.82;;;2.13;;
34902;SDS011;21114;44.840;0.214;2023-02-22T16:22:47;2.67;;;1.58;;
34902;SDS011;21114;44.840;0.214;2023-02-22T16:26:04;4.53;;;2.78;;
34902;SDS011;21114;44.840;0.214;2023-02-22T16:29:24;19.15;;;7.60;;
34902;SDS011;21114;44.840;0.214;2023-02-22T16:32:41;5.25;;;4.28;;
34902;SDS011;21114;44.840;0.214;2023-02-22T16:35:07;5.15;;;2.85;;
34902;SDS011;21114;44.840;0.214;2023-02-22T16:37:42;3.33;;;3.03;;
34902;SDS011;21114;44.840;0.214;2023-02-22T16:40:57;4.30;;;2.95;;
34902;SDS011;21114;44.840;0.214;2023-02-22T16:43:24;10.15;;;3.15;;
34902;SDS011;21114;44.840;0.214;2023-02-22T16:46:39;4.88;;;3.33;;
34902;SDS011;21114;44.840;0.214;2023-02-22T16:49:53;9.85;;;3.65;;
34902;SDS011;21114;44.840;0.214;2023-02-22T16:52:38;4.72;;;2.85;;
34902;SDS011;21114;44.840;0.214;2023-02-22T16:55:53;5.43;;;3.55;;
34902;SDS011;21114;44.840;0.214;2023-02-22T16:58:47;5.20;;;3.03;;
34902;SDS011;21114;44.840;0.214;2023-02-22T17:02:02;6.15;;;2.80;;
34902;SDS011;21114;44.840;0.214;2023-02-22T17:04:31;5.50;;;2.85;;
34902;SDS011;21114;44.840;0.214;2023-02-22T17:06:58;5.85;;;3.33;;
34902;SDS011;21114;44.840;0.214;2023-02-22T17:10:14;5.60;;;3.13;;
34902;SDS011;21114;44.840;0.214;2023-02-22T17:13:29;6.40;;;3.33;;
34902;SDS011;21114;44.840;0.214;2023-02-22T17:15:55;4.65;;;3.45;;
34902;SDS011;21114;44.840;0.214;2023-02-22T17:18:22;5.85;;;3.40;;
34902;SDS011;21114;44.840;0.214;2023-02-22T17:21:09;6.70;;;4.28;;
34902;SDS011;21114;44.840;0.214;2023-02-22T17:23:36;11.52;;;6.10;;
34902;SDS011;21114;44.840;0.214;2023-02-22T17:26:02;7.47;;;4.22;;
34902;SDS011;21114;44.840;0.214;2023-02-22T17:29:17;7.75;;;4.63;;
34902;SDS011;21114;44.840;0.214;2023-02-22T17:32:31;12.40;;;8.20;;
34902;SDS011;21114;44.840;0.214;2023-02-22T17:34:57;7.93;;;6.47;;
34902;SDS011;21114;44.840;0.214;2023-02-22T17:37:23;7.78;;;6.15;;
34902;SDS011;21114;44.840;0.214;2023-02-22T17:39:49;16.75;;;14.52;;
34902;SDS011;21114;44.840;0.214;2023-02-22T17:42:15;18.42;;;13.95;;
34902;SDS011;21114;44.840;0.214;2023-02-22T17:44:42;16.80;;;10.45;;
34902;SDS011;21114;44.840;0.214;2023-02-22T17:47:08;13.02;;;9.85;;
34902;SDS011;21114;44.840;0.214;2023-02-22T17:49:34;18.10;;;10.23;;
34902;SDS011;21114;44.840;0.214;2023-02-22T17:52:00;9.05;;;6.28;;
34902;SDS011;21114;44.840;0.214;2023-02-22T17:54:30;12.88;;;9.88;;
34902;SDS011;21114;44.840;0.214;2023-02-22T17:56:58;6.50;;;4.82;;
34902;SDS011;21114;44.840;0.214;2023-02-22T17:59:24;14.20;;;5.53;;
34902;SDS011;21114;44.840;0.214;2023-02-22T18:01:50;6.82;;;4.75;;
34902;SDS011;21114;44.840;0.214;2023-02-22T18:04:16;6.05;;;4.72;;
34902;SDS011;21114;44.840;0.214;2023-02-22T18:06:43;12.40;;;7.25;;
34902;SDS011;21114;44.840;0.214;2023-02-22T18:09:10;7.60;;;4.93;;
34902;SDS011;21114;44.840;0.214;2023-02-22T18:11:41;11.05;;;5.38;;
34902;SDS011;21114;44.840;0.214;2023-02-22T18:14:07;7.50;;;5.70;;
34902;SDS011;21114;44.840;0.214;2023-02-22T18:16:36;11.07;;;5.90;;
34902;SDS011;21114;44.840;0.214;2023-02-22T18:19:03;5.60;;;4.80;;
34902;SDS011;21114;44.840;0.214;2023-02-22T18:22:18;5.40;;;4.18;;
34902;SDS011;21114;44.840;0.214;2023-02-22T18:24:44;7.65;;;3.85;;
34902;SDS011;21114;44.840;0.214;2023-02-22T18:27:59;6.18;;;4.72;;
34902;SDS011;21114;44.840;0.214;2023-02-22T18:30:26;8.82;;;6.22;;
34902;SDS011;21114;44.840;0.214;2023-02-22T18:32:53;8.57;;;4.85;;
34902;SDS011;21114;44.840;0.214;2023-02-22T18:35:19;10.98;;;6.38;;
34902;SDS011;21114;44.840;0.214;2023-02-22T18:37:45;14.50;;;10.57;;
34902;SDS011;21114;44.840;0.214;2023-02-22T18:40:11;16.15;;;11.13;;
34902;SDS011;21114;44.840;0.214;2023-02-22T18:43:02;14.98;;;8.82;;
34902;SDS011;21114;44.840;0.214;2023-02-22T18:45:29;10.45;;;8.05;;
34902;SDS011;21114;44.840;0.214;2023-02-22T18:47:55;11.07;;;7.72;;
34902;SDS011;21114;44.840;0.214;2023-02-22T18:50:38;16.95;;;8.63;;
34902;SDS011;21114;44.840;0.214;2023-02-22T18:53:04;15.93;;;8.65;;
34902;SDS011;21114;44.840;0.214;2023-02-22T18:55:30;15.15;;;9.80;;
34902;SDS011;21114;44.840;0.214;2023-02-22T18:57:56;13.00;;;10.20;;
34902;SDS011;21114;44.840;0.214;2023-02-22T19:00:22;17.40;;;12.63;;
34902;SDS011;21114;44.840;0.214;2023-02-22T19:02:52;17.33;;;11.77;;
34902;SDS011;21114;44.840;0.214;2023-02-22T19:05:19;19.38;;;13.30;;
34902;SDS011;21114;44.840;0.214;2023-02-22T19:07:45;19.95;;;14.18;;
34902;SDS011;21114;44.840;0.214;2023-02-22T19:10:12;17.35;;;10.90;;
34902;SDS011;21114;44.840;0.214;2023-02-22T19:12:38;13.55;;;9.25;;
34902;SDS011;21114;44.840;0.214;2023-02-22T19:15:04;10.48;;;6.68;;